sensor_id;sensor_type;location;lat;lon;timestamp;temperature;humidity
70928;SHT31;58587;53.034;18.576;2023-08-30T00:00:40;17.71;94.91
70928;SHT31;58587;53.034;18.576;2023-08-30T00:03:06;17.69;94.92
70928;SHT31;58587;53.034;18.576;2023-08-30T00:05:31;17.68;94.79
70928;SHT31;58587;53.034;18.576;2023-08-30T00:07:56;17.65;94.81
70928;SHT31;58587;53.034;18.576;2023-08-30T00:10:22;17.64;94.59
70928;SHT31;58587;53.034;18.576;2023-08-30T00:12:47;17.56;94.54
70928;SHT31;58587;53.034;18.576;2023-08-30T00:15:13;17.55;94.37
70928;SHT31;58587;53.034;18.576;2023-08-30T00:17:39;17.46;94.21
70928;SHT31;58587;53.034;18.576;2023-08-30T00:20:05;17.48;94.50
70928;SHT31;58587;53.034;18.576;2023-08-30T00:22:31;17.45;94.43
70928;SHT31;58587;53.034;18.576;2023-08-30T00:24:57;17.44;94.40
70928;SHT31;58587;53.034;18.576;2023-08-30T00:27:22;17.41;94.34
70928;SHT31;58587;53.034;18.576;2023-08-30T00:29:47;17.42;94.56
70928;SHT31;58587;53.034;18.576;2023-08-30T00:32:13;17.36;94.56
70928;SHT31;58587;53.034;18.576;2023-08-30T00:34:38;17.41;94.69
70928;SHT31;58587;53.034;18.576;2023-08-30T00:37:03;17.38;94.62
70928;SHT31;58587;53.034;18.576;2023-08-30T00:39:29;17.35;94.76
70928;SHT31;58587;53.034;18.576;2023-08-30T00:41:54;17.35;94.48
70928;SHT31;58587;53.034;18.576;2023-08-30T00:44:19;17.32;94.79
70928;SHT31;58587;53.034;18.576;2023-08-30T00:46:45;17.34;94.85
70928;SHT31;58587;53.034;18.576;2023-08-30T00:49:10;17.31;94.87
70928;SHT31;58587;53.034;18.576;2023-08-30T00:51:36;17.28;94.73
70928;SHT31;58587;53.034;18.576;2023-08-30T00:54:02;17.27;94.84
70928;SHT31;58587;53.034;18.576;2023-08-30T00:56:27;17.27;94.65
70928;SHT31;58587;53.034;18.576;2023-08-30T00:58:53;17.21;94.61
70928;SHT31;58587;53.034;18.576;2023-08-30T01:01:18;17.21;94.79
70928;SHT31;58587;53.034;18.576;2023-08-30T01:03:44;17.20;94.64
70928;SHT31;58587;53.034;18.576;2023-08-30T01:06:10;17.17;94.58
70928;SHT31;58587;53.034;18.576;2023-08-30T01:08:36;17.11;94.55
70928;SHT31;58587;53.034;18.576;2023-08-30T01:11:31;17.11;94.60
70928;SHT31;58587;53.034;18.576;2023-08-30T01:14:05;17.12;94.44
70928;SHT31;58587;53.034;18.576;2023-08-30T01:16:33;17.11;94.46
70928;SHT31;58587;53.034;18.576;2023-08-30T01:18:59;17.12;94.58
70928;SHT31;58587;53.034;18.576;2023-08-30T01:22:05;17.08;94.49
70928;SHT31;58587;53.034;18.576;2023-08-30T01:27:38;17.07;94.71
70928;SHT31;58587;53.034;18.576;2023-08-30T01:30:06;17.08;94.62
70928;SHT31;58587;53.034;18.576;2023-08-30T01:32:33;17.04;94.67
70928;SHT31;58587;53.034;18.576;2023-08-30T01:35:00;17.04;94.61
70928;SHT31;58587;53.034;18.576;2023-08-30T01:37:26;17.07;94.82
70928;SHT31;58587;53.034;18.576;2023-08-30T01:39:52;17.06;94.72
70928;SHT31;58587;53.034;18.576;2023-08-30T01:42:18;17.03;94.72
70928;SHT31;58587;53.034;18.576;2023-08-30T01:44:48;17.06;94.91
70928;SHT31;58587;53.034;18.576;2023-08-30T01:47:14;17.08;94.82
70928;SHT31;58587;53.034;18.576;2023-08-30T01:49:42;17.03;94.77
70928;SHT31;58587;53.034;18.576;2023-08-30T01:52:09;17.04;94.76
70928;SHT31;58587;53.034;18.576;2023-08-30T01:54:35;17.04;94.70
70928;SHT31;58587;53.034;18.576;2023-08-30T01:57:02;17.04;94.40
70928;SHT31;58587;53.034;18.576;2023-08-30T01:59:29;17.01;94.28
70928;SHT31;58587;53.034;18.576;2023-08-30T02:01:54;17.04;94.57
70928;SHT31;58587;53.034;18.576;2023-08-30T02:04:20;17.00;94.67
70928;SHT31;58587;53.034;18.576;2023-08-30T02:06:54;16.95;94.55
70928;SHT31;58587;53.034;18.576;2023-08-30T02:09:57;16.97;94.63
70928;SHT31;58587;53.034;18.576;2023-08-30T02:12:24;16.94;94.69
70928;SHT31;58587;53.034;18.576;2023-08-30T02:14:53;16.94;94.75
70928;SHT31;58587;53.034;18.576;2023-08-30T02:17:20;16.93;94.80
70928;SHT31;58587;53.034;18.576;2023-08-30T02:19:45;16.94;94.56
70928;SHT31;58587;53.034;18.576;2023-08-30T02:22:11;16.90;94.58
70928;SHT31;58587;53.034;18.576;2023-08-30T02:24:36;16.95;94.56
70928;SHT31;58587;53.034;18.576;2023-08-30T02:27:02;16.93;94.69
70928;SHT31;58587;53.034;18.576;2023-08-30T02:29:28;16.88;94.35
70928;SHT31;58587;53.034;18.576;2023-08-30T02:31:53;16.85;94.38
70928;SHT31;58587;53.034;18.576;2023-08-30T02:34:18;16.83;94.26
70928;SHT31;58587;53.034;18.576;2023-08-30T02:36:44;16.83;94.34
70928;SHT31;58587;53.034;18.576;2023-08-30T02:39:09;16.83;94.43
70928;SHT31;58587;53.034;18.576;2023-08-30T02:41:35;16.80;94.48
70928;SHT31;58587;53.034;18.576;2023-08-30T02:44:01;16.79;94.49
70928;SHT31;58587;53.034;18.576;2023-08-30T02:46:26;16.77;94.36
70928;SHT31;58587;53.034;18.576;2023-08-30T02:48:51;16.76;94.49
70928;SHT31;58587;53.034;18.576;2023-08-30T02:51:16;16.73;94.43
70928;SHT31;58587;53.034;18.576;2023-08-30T02:53:42;16.71;94.38
70928;SHT31;58587;53.034;18.576;2023-08-30T02:56:07;16.69;94.50
70928;SHT31;58587;53.034;18.576;2023-08-30T02:58:33;16.66;94.42
70928;SHT31;58587;53.034;18.576;2023-08-30T03:00:59;16.64;94.41
70928;SHT31;58587;53.034;18.576;2023-08-30T03:03:24;16.60;94.38
70928;SHT31;58587;53.034;18.576;2023-08-30T03:05:49;16.57;94.38
70928;SHT31;58587;53.034;18.576;2023-08-30T03:08:15;16.59;94.41
70928;SHT31;58587;53.034;18.576;2023-08-30T03:10:40;16.59;94.39
70928;SHT31;58587;53.034;18.576;2023-08-30T03:13:05;16.53;94.28
70928;SHT31;58587;53.034;18.576;2023-08-30T03:15:31;16.50;94.52
70928;SHT31;58587;53.034;18.576;2023-08-30T03:17:59;16.50;94.51
70928;SHT31;58587;53.034;18.576;2023-08-30T03:20:24;16.50;94.69
70928;SHT31;58587;53.034;18.576;2023-08-30T03:22:50;16.52;94.44
70928;SHT31;58587;53.034;18.576;2023-08-30T03:25:15;16.45;94.37
70928;SHT31;58587;53.034;18.576;2023-08-30T03:27:41;16.43;94.54
70928;SHT31;58587;53.034;18.576;2023-08-30T03:30:06;16.45;94.77
70928;SHT31;58587;53.034;18.576;2023-08-30T03:32:32;16.43;94.69
70928;SHT31;58587;53.034;18.576;2023-08-30T03:34:57;16.43;94.97
70928;SHT31;58587;53.034;18.576;2023-08-30T03:37:23;16.48;94.96
70928;SHT31;58587;53.034;18.576;2023-08-30T03:39:48;16.48;94.93
70928;SHT31;58587;53.034;18.576;2023-08-30T03:42:13;16.49;95.02
70928;SHT31;58587;53.034;18.576;2023-08-30T03:44:38;16.50;94.82
70928;SHT31;58587;53.034;18.576;2023-08-30T03:47:04;16.48;94.84
70928;SHT31;58587;53.034;18.576;2023-08-30T03:49:30;16.46;94.92
70928;SHT31;58587;53.034;18.576;2023-08-30T03:51:55;16.50;94.92
70928;SHT31;58587;53.034;18.576;2023-08-30T03:54:21;16.49;94.99
70928;SHT31;58587;53.034;18.576;2023-08-30T03:56:46;16.49;94.79
70928;SHT31;58587;53.034;18.576;2023-08-30T03:59:11;16.52;94.87
70928;SHT31;58587;53.034;18.576;2023-08-30T04:01:37;16.52;95.10
70928;SHT31;58587;53.034;18.576;2023-08-30T04:04:02;16.52;94.99
70928;SHT31;58587;53.034;18.576;2023-08-30T04:06:27;16.52;95.05
70928;SHT31;58587;53.034;18.576;2023-08-30T04:08:53;16.50;94.84
70928;SHT31;58587;53.034;18.576;2023-08-30T04:11:18;16.52;95.01
70928;SHT31;58587;53.034;18.576;2023-08-30T04:13:44;16.52;95.02
70928;SHT31;58587;53.034;18.576;2023-08-30T04:16:10;16.53;95.03
70928;SHT31;58587;53.034;18.576;2023-08-30T04:18:35;16.55;95.00
70928;SHT31;58587;53.034;18.576;2023-08-30T04:21:00;16.56;94.86
70928;SHT31;58587;53.034;18.576;2023-08-30T04:23:28;16.56;95.08
70928;SHT31;58587;53.034;18.576;2023-08-30T04:25:53;16.57;95.11
70928;SHT31;58587;53.034;18.576;2023-08-30T04:28:19;16.59;95.12
70928;SHT31;58587;53.034;18.576;2023-08-30T04:30:44;16.63;95.09
70928;SHT31;58587;53.034;18.576;2023-08-30T04:33:09;16.59;95.11
70928;SHT31;58587;53.034;18.576;2023-08-30T04:35:34;16.61;95.11
70928;SHT31;58587;53.034;18.576;2023-08-30T04:38:01;16.64;95.30
70928;SHT31;58587;53.034;18.576;2023-08-30T04:40:27;16.67;95.32
70928;SHT31;58587;53.034;18.576;2023-08-30T04:42:53;16.70;95.36
70928;SHT31;58587;53.034;18.576;2023-08-30T04:45:18;16.70;95.43
70928;SHT31;58587;53.034;18.576;2023-08-30T04:47:44;16.73;95.41
70928;SHT31;58587;53.034;18.576;2023-08-30T04:50:10;16.74;95.25
70928;SHT31;58587;53.034;18.576;2023-08-30T04:52:36;16.80;95.32
70928;SHT31;58587;53.034;18.576;2023-08-30T04:55:01;16.79;95.12
70928;SHT31;58587;53.034;18.576;2023-08-30T04:57:27;16.81;95.10
70928;SHT31;58587;53.034;18.576;2023-08-30T04:59:52;16.81;95.15
70928;SHT31;58587;53.034;18.576;2023-08-30T05:02:17;16.83;95.11
70928;SHT31;58587;53.034;18.576;2023-08-30T05:04:43;16.84;95.24
70928;SHT31;58587;53.034;18.576;2023-08-30T05:07:08;16.81;95.19
70928;SHT31;58587;53.034;18.576;2023-08-30T05:09:34;16.85;95.26
70928;SHT31;58587;53.034;18.576;2023-08-30T05:12:00;16.85;95.24
70928;SHT31;58587;53.034;18.576;2023-08-30T05:14:25;16.87;95.06
70928;SHT31;58587;53.034;18.576;2023-08-30T05:16:51;16.90;95.18
70928;SHT31;58587;53.034;18.576;2023-08-30T05:19:16;16.93;95.16
70928;SHT31;58587;53.034;18.576;2023-08-30T05:21:42;16.90;94.96
70928;SHT31;58587;53.034;18.576;2023-08-30T05:24:07;16.90;94.99
70928;SHT31;58587;53.034;18.576;2023-08-30T05:26:33;16.91;94.87
70928;SHT31;58587;53.034;18.576;2023-08-30T05:28:58;16.90;94.99
70928;SHT31;58587;53.034;18.576;2023-08-30T05:31:23;16.91;95.10
70928;SHT31;58587;53.034;18.576;2023-08-30T05:33:49;16.95;94.99
70928;SHT31;58587;53.034;18.576;2023-08-30T05:36:14;16.94;95.14
70928;SHT31;58587;53.034;18.576;2023-08-30T05:38:39;16.99;95.03
70928;SHT31;58587;53.034;18.576;2023-08-30T05:41:06;16.97;95.04
70928;SHT31;58587;53.034;18.576;2023-08-30T05:43:31;17.03;95.03
70928;SHT31;58587;53.034;18.576;2023-08-30T05:45:56;17.01;95.09
70928;SHT31;58587;53.034;18.576;2023-08-30T05:48:26;17.07;95.03
70928;SHT31;58587;53.034;18.576;2023-08-30T05:50:52;17.12;95.10
70928;SHT31;58587;53.034;18.576;2023-08-30T05:53:17;17.14;94.94
70928;SHT31;58587;53.034;18.576;2023-08-30T05:55:42;17.17;94.88
70928;SHT31;58587;53.034;18.576;2023-08-30T05:58:08;17.18;94.52
70928;SHT31;58587;53.034;18.576;2023-08-30T06:00:33;17.24;94.68
70928;SHT31;58587;53.034;18.576;2023-08-30T06:02:58;17.32;94.87
70928;SHT31;58587;53.034;18.576;2023-08-30T06:05:24;17.38;94.55
70928;SHT31;58587;53.034;18.576;2023-08-30T06:07:49;17.38;94.21
70928;SHT31;58587;53.034;18.576;2023-08-30T06:10:14;17.46;94.27
70928;SHT31;58587;53.034;18.576;2023-08-30T06:12:40;17.55;94.35
70928;SHT31;58587;53.034;18.576;2023-08-30T06:15:05;17.59;94.19
70928;SHT31;58587;53.034;18.576;2023-08-30T06:17:31;17.62;93.52
70928;SHT31;58587;53.034;18.576;2023-08-30T06:19:57;17.62;93.70
70928;SHT31;58587;53.034;18.576;2023-08-30T06:22:22;17.59;93.55
70928;SHT31;58587;53.034;18.576;2023-08-30T06:24:47;17.62;93.61
70928;SHT31;58587;53.034;18.576;2023-08-30T06:27:13;17.58;93.54
70928;SHT31;58587;53.034;18.576;2023-08-30T06:29:38;17.56;93.30
70928;SHT31;58587;53.034;18.576;2023-08-30T06:32:04;17.54;92.82
70928;SHT31;58587;53.034;18.576;2023-08-30T06:34:30;17.54;92.91
70928;SHT31;58587;53.034;18.576;2023-08-30T06:36:55;17.54;93.12
70928;SHT31;58587;53.034;18.576;2023-08-30T06:39:20;17.55;92.89
70928;SHT31;58587;53.034;18.576;2023-08-30T06:41:45;17.62;92.97
70928;SHT31;58587;53.034;18.576;2023-08-30T06:44:11;17.61;92.89
70928;SHT31;58587;53.034;18.576;2023-08-30T06:46:36;17.56;92.24
70928;SHT31;58587;53.034;18.576;2023-08-30T06:49:03;17.51;92.38
70928;SHT31;58587;53.034;18.576;2023-08-30T06:51:28;17.54;92.48
70928;SHT31;58587;53.034;18.576;2023-08-30T06:53:53;17.52;91.85
70928;SHT31;58587;53.034;18.576;2023-08-30T06:56:20;17.54;92.37
70928;SHT31;58587;53.034;18.576;2023-08-30T06:58:45;17.56;92.32
70928;SHT31;58587;53.034;18.576;2023-08-30T07:01:11;17.59;92.36
70928;SHT31;58587;53.034;18.576;2023-08-30T07:03:36;17.75;92.65
70928;SHT31;58587;53.034;18.576;2023-08-30T07:06:01;17.81;92.38
70928;SHT31;58587;53.034;18.576;2023-08-30T07:08:27;17.83;92.26
70928;SHT31;58587;53.034;18.576;2023-08-30T07:10:52;17.89;92.17
70928;SHT31;58587;53.034;18.576;2023-08-30T07:13:17;17.95;92.27
70928;SHT31;58587;53.034;18.576;2023-08-30T07:15:43;17.96;91.59
70928;SHT31;58587;53.034;18.576;2023-08-30T07:18:08;18.02;91.35
70928;SHT31;58587;53.034;18.576;2023-08-30T07:20:34;18.07;91.39
70928;SHT31;58587;53.034;18.576;2023-08-30T07:23:02;18.07;90.43
70928;SHT31;58587;53.034;18.576;2023-08-30T07:25:27;18.13;91.21
70928;SHT31;58587;53.034;18.576;2023-08-30T07:27:52;18.17;90.84
70928;SHT31;58587;53.034;18.576;2023-08-30T07:30:18;18.19;90.70
70928;SHT31;58587;53.034;18.576;2023-08-30T07:32:43;18.23;90.66
70928;SHT31;58587;53.034;18.576;2023-08-30T07:35:09;18.26;91.22
70928;SHT31;58587;53.034;18.576;2023-08-30T07:37:35;18.25;91.04
70928;SHT31;58587;53.034;18.576;2023-08-30T07:40:01;18.27;90.64
70928;SHT31;58587;53.034;18.576;2023-08-30T07:42:26;18.23;89.64
70928;SHT31;58587;53.034;18.576;2023-08-30T07:44:51;18.25;90.37
70928;SHT31;58587;53.034;18.576;2023-08-30T07:47:17;18.30;89.88
70928;SHT31;58587;53.034;18.576;2023-08-30T07:49:42;18.27;89.90
70928;SHT31;58587;53.034;18.576;2023-08-30T07:52:07;18.33;90.28
70928;SHT31;58587;53.034;18.576;2023-08-30T07:54:36;18.29;89.87
70928;SHT31;58587;53.034;18.576;2023-08-30T07:57:02;18.34;90.30
70928;SHT31;58587;53.034;18.576;2023-08-30T07:59:29;18.22;89.30
70928;SHT31;58587;53.034;18.576;2023-08-30T08:01:54;18.19;89.70
70928;SHT31;58587;53.034;18.576;2023-08-30T08:04:19;18.19;90.37
70928;SHT31;58587;53.034;18.576;2023-08-30T08:06:45;18.13;90.19
70928;SHT31;58587;53.034;18.576;2023-08-30T08:09:10;18.06;90.05
70928;SHT31;58587;53.034;18.576;2023-08-30T08:11:35;17.99;90.45
70928;SHT31;58587;53.034;18.576;2023-08-30T08:14:01;18.00;90.72
70928;SHT31;58587;53.034;18.576;2023-08-30T08:16:26;17.99;91.20
70928;SHT31;58587;53.034;18.576;2023-08-30T08:18:51;18.02;91.36
70928;SHT31;58587;53.034;18.576;2023-08-30T08:21:17;17.95;90.73
70928;SHT31;58587;53.034;18.576;2023-08-30T08:23:43;17.89;90.70
70928;SHT31;58587;53.034;18.576;2023-08-30T08:26:08;17.89;90.80
70928;SHT31;58587;53.034;18.576;2023-08-30T08:28:33;17.92;91.27
70928;SHT31;58587;53.034;18.576;2023-08-30T08:31:00;17.85;91.06
70928;SHT31;58587;53.034;18.576;2023-08-30T08:33:25;17.86;90.84
70928;SHT31;58587;53.034;18.576;2023-08-30T08:35:50;17.83;91.00
70928;SHT31;58587;53.034;18.576;2023-08-30T08:38:16;17.78;90.59
70928;SHT31;58587;53.034;18.576;2023-08-30T08:40:41;17.76;91.09
70928;SHT31;58587;53.034;18.576;2023-08-30T08:43:09;17.76;91.15
70928;SHT31;58587;53.034;18.576;2023-08-30T08:45:35;17.72;90.90
70928;SHT31;58587;53.034;18.576;2023-08-30T08:48:05;17.75;91.42
70928;SHT31;58587;53.034;18.576;2023-08-30T08:50:32;17.76;91.41
70928;SHT31;58587;53.034;18.576;2023-08-30T08:52:57;17.71;91.03
70928;SHT31;58587;53.034;18.576;2023-08-30T08:55:23;17.72;91.51
70928;SHT31;58587;53.034;18.576;2023-08-30T08:57:53;17.69;91.39
70928;SHT31;58587;53.034;18.576;2023-08-30T09:00:19;17.69;91.23
70928;SHT31;58587;53.034;18.576;2023-08-30T09:02:44;17.69;91.54
70928;SHT31;58587;53.034;18.576;2023-08-30T09:05:11;17.74;91.61
70928;SHT31;58587;53.034;18.576;2023-08-30T09:07:37;17.68;90.76
70928;SHT31;58587;53.034;18.576;2023-08-30T09:10:02;17.71;91.19
70928;SHT31;58587;53.034;18.576;2023-08-30T09:12:32;17.71;91.27
70928;SHT31;58587;53.034;18.576;2023-08-30T09:14:57;17.72;91.43
70928;SHT31;58587;53.034;18.576;2023-08-30T09:17:23;17.71;91.25
70928;SHT31;58587;53.034;18.576;2023-08-30T09:19:48;17.71;91.61
70928;SHT31;58587;53.034;18.576;2023-08-30T09:22:13;17.69;91.89
70928;SHT31;58587;53.034;18.576;2023-08-30T09:24:40;17.68;91.93
70928;SHT31;58587;53.034;18.576;2023-08-30T09:27:06;17.68;92.06
70928;SHT31;58587;53.034;18.576;2023-08-30T09:29:31;17.69;92.20
70928;SHT31;58587;53.034;18.576;2023-08-30T09:31:56;17.68;92.05
70928;SHT31;58587;53.034;18.576;2023-08-30T09:34:25;17.71;92.32
70928;SHT31;58587;53.034;18.576;2023-08-30T09:36:51;17.64;92.27
70928;SHT31;58587;53.034;18.576;2023-08-30T09:39:17;17.64;92.70
70928;SHT31;58587;53.034;18.576;2023-08-30T09:41:47;17.68;92.78
70928;SHT31;58587;53.034;18.576;2023-08-30T09:44:17;17.68;92.64
70928;SHT31;58587;53.034;18.576;2023-08-30T09:46:50;17.65;92.54
70928;SHT31;58587;53.034;18.576;2023-08-30T09:49:19;17.66;92.80
70928;SHT31;58587;53.034;18.576;2023-08-30T09:51:46;17.65;92.65
70928;SHT31;58587;53.034;18.576;2023-08-30T09:54:19;17.59;92.77
70928;SHT31;58587;53.034;18.576;2023-08-30T09:56:46;17.65;92.81
70928;SHT31;58587;53.034;18.576;2023-08-30T09:59:13;17.65;92.97
70928;SHT31;58587;53.034;18.576;2023-08-30T10:01:40;17.68;92.97
70928;SHT31;58587;53.034;18.576;2023-08-30T10:04:07;17.68;92.78
70928;SHT31;58587;53.034;18.576;2023-08-30T10:06:35;17.64;93.07
70928;SHT31;58587;53.034;18.576;2023-08-30T10:09:01;17.64;92.85
70928;SHT31;58587;53.034;18.576;2023-08-30T10:11:29;17.65;93.06
70928;SHT31;58587;53.034;18.576;2023-08-30T10:13:55;17.71;93.17
70928;SHT31;58587;53.034;18.576;2023-08-30T10:16:23;17.71;93.20
70928;SHT31;58587;53.034;18.576;2023-08-30T10:18:54;17.71;93.20
70928;SHT31;58587;53.034;18.576;2023-08-30T10:21:26;17.75;93.04
70928;SHT31;58587;53.034;18.576;2023-08-30T10:23:53;17.76;93.13
70928;SHT31;58587;53.034;18.576;2023-08-30T10:26:23;17.76;92.78
70928;SHT31;58587;53.034;18.576;2023-08-30T10:28:50;17.78;92.59
70928;SHT31;58587;53.034;18.576;2023-08-30T10:31:17;17.83;92.67
70928;SHT31;58587;53.034;18.576;2023-08-30T10:34:11;17.82;92.11
70928;SHT31;58587;53.034;18.576;2023-08-30T10:36:37;17.87;92.81
70928;SHT31;58587;53.034;18.576;2023-08-30T10:39:14;17.89;92.67
70928;SHT31;58587;53.034;18.576;2023-08-30T10:41:55;17.90;92.60
70928;SHT31;58587;53.034;18.576;2023-08-30T10:44:22;17.90;92.20
70928;SHT31;58587;53.034;18.576;2023-08-30T10:46:52;17.95;92.50
70928;SHT31;58587;53.034;18.576;2023-08-30T10:49:18;17.96;92.31
70928;SHT31;58587;53.034;18.576;2023-08-30T10:51:44;17.93;92.18
70928;SHT31;58587;53.034;18.576;2023-08-30T10:54:14;18.02;92.66
70928;SHT31;58587;53.034;18.576;2023-08-30T10:59:20;18.13;92.05
70928;SHT31;58587;53.034;18.576;2023-08-30T11:01:46;18.19;92.06
70928;SHT31;58587;53.034;18.576;2023-08-30T11:04:14;18.25;91.88
70928;SHT31;58587;53.034;18.576;2023-08-30T11:06:40;18.23;90.89
70928;SHT31;58587;53.034;18.576;2023-08-30T11:09:06;18.26;91.19
70928;SHT31;58587;53.034;18.576;2023-08-30T11:11:32;18.26;91.52
70928;SHT31;58587;53.034;18.576;2023-08-30T11:14:08;18.30;91.65
70928;SHT31;58587;53.034;18.576;2023-08-30T11:16:34;18.41;92.10
70928;SHT31;58587;53.034;18.576;2023-08-30T11:19:04;18.44;91.88
70928;SHT31;58587;53.034;18.576;2023-08-30T11:21:36;18.43;91.15
70928;SHT31;58587;53.034;18.576;2023-08-30T11:24:03;18.48;91.30
70928;SHT31;58587;53.034;18.576;2023-08-30T11:26:28;18.40;90.35
70928;SHT31;58587;53.034;18.576;2023-08-30T11:28:54;18.43;90.38
70928;SHT31;58587;53.034;18.576;2023-08-30T11:31:26;18.40;90.48
70928;SHT31;58587;53.034;18.576;2023-08-30T11:33:53;18.41;90.84
70928;SHT31;58587;53.034;18.576;2023-08-30T11:36:21;18.44;90.81
70928;SHT31;58587;53.034;18.576;2023-08-30T11:38:47;18.43;91.11
70928;SHT31;58587;53.034;18.576;2023-08-30T11:41:16;18.48;91.24
70928;SHT31;58587;53.034;18.576;2023-08-30T11:43:44;18.48;91.07
70928;SHT31;58587;53.034;18.576;2023-08-30T11:46:10;18.51;91.30
70928;SHT31;58587;53.034;18.576;2023-08-30T11:48:38;18.53;91.62
70928;SHT31;58587;53.034;18.576;2023-08-30T11:51:03;18.51;90.51
70928;SHT31;58587;53.034;18.576;2023-08-30T11:53:29;18.53;91.04
70928;SHT31;58587;53.034;18.576;2023-08-30T11:55:54;18.57;91.12
70928;SHT31;58587;53.034;18.576;2023-08-30T11:58:20;18.51;90.19
70928;SHT31;58587;53.034;18.576;2023-08-30T12:00:46;18.53;90.38
70928;SHT31;58587;53.034;18.576;2023-08-30T12:03:14;18.56;90.31
70928;SHT31;58587;53.034;18.576;2023-08-30T12:05:47;18.51;90.41
70928;SHT31;58587;53.034;18.576;2023-08-30T12:08:28;18.56;90.73
70928;SHT31;58587;53.034;18.576;2023-08-30T12:10:55;18.57;90.13
70928;SHT31;58587;53.034;18.576;2023-08-30T12:13:23;18.65;90.94
70928;SHT31;58587;53.034;18.576;2023-08-30T12:15:49;18.71;91.02
70928;SHT31;58587;53.034;18.576;2023-08-30T12:18:15;18.74;89.54
70928;SHT31;58587;53.034;18.576;2023-08-30T12:23:20;18.85;90.10
70928;SHT31;58587;53.034;18.576;2023-08-30T12:26:17;18.85;89.83
70928;SHT31;58587;53.034;18.576;2023-08-30T12:28:45;18.92;89.74
70928;SHT31;58587;53.034;18.576;2023-08-30T12:31:10;19.00;89.87
70928;SHT31;58587;53.034;18.576;2023-08-30T12:33:37;19.11;89.64
70928;SHT31;58587;53.034;18.576;2023-08-30T12:36:03;19.18;89.23
70928;SHT31;58587;53.034;18.576;2023-08-30T12:38:29;19.25;89.23
70928;SHT31;58587;53.034;18.576;2023-08-30T12:40:55;19.26;87.93
70928;SHT31;58587;53.034;18.576;2023-08-30T12:43:21;19.26;87.94
70928;SHT31;58587;53.034;18.576;2023-08-30T12:45:47;19.32;88.98
70928;SHT31;58587;53.034;18.576;2023-08-30T12:48:13;19.35;88.29
70928;SHT31;58587;53.034;18.576;2023-08-30T12:50:41;19.38;87.58
70928;SHT31;58587;53.034;18.576;2023-08-30T12:53:07;19.42;88.59
70928;SHT31;58587;53.034;18.576;2023-08-30T12:55:33;19.43;88.54
70928;SHT31;58587;53.034;18.576;2023-08-30T12:58:01;19.39;88.03
70928;SHT31;58587;53.034;18.576;2023-08-30T13:00:28;19.29;86.67
70928;SHT31;58587;53.034;18.576;2023-08-30T13:02:53;19.31;87.62
70928;SHT31;58587;53.034;18.576;2023-08-30T13:05:19;19.21;86.70
70928;SHT31;58587;53.034;18.576;2023-08-30T13:07:44;19.14;87.19
70928;SHT31;58587;53.034;18.576;2023-08-30T13:10:10;19.11;87.86
70928;SHT31;58587;53.034;18.576;2023-08-30T13:12:36;19.07;88.36
70928;SHT31;58587;53.034;18.576;2023-08-30T13:15:03;19.00;87.13
70928;SHT31;58587;53.034;18.576;2023-08-30T13:17:28;18.92;87.78
70928;SHT31;58587;53.034;18.576;2023-08-30T13:19:53;18.88;87.34
70928;SHT31;58587;53.034;18.576;2023-08-30T13:22:19;18.83;87.57
70928;SHT31;58587;53.034;18.576;2023-08-30T13:24:44;18.80;87.97
70928;SHT31;58587;53.034;18.576;2023-08-30T13:27:13;18.80;88.57
70928;SHT31;58587;53.034;18.576;2023-08-30T13:29:39;18.72;88.29
70928;SHT31;58587;53.034;18.576;2023-08-30T13:32:04;18.68;88.07
70928;SHT31;58587;53.034;18.576;2023-08-30T13:34:30;18.68;88.33
70928;SHT31;58587;53.034;18.576;2023-08-30T13:36:56;18.65;88.14
70928;SHT31;58587;53.034;18.576;2023-08-30T13:39:21;18.61;88.14
70928;SHT31;58587;53.034;18.576;2023-08-30T13:41:47;18.61;88.45
70928;SHT31;58587;53.034;18.576;2023-08-30T13:44:13;18.60;88.87
70928;SHT31;58587;53.034;18.576;2023-08-30T13:46:38;18.61;88.89
70928;SHT31;58587;53.034;18.576;2023-08-30T13:49:04;18.58;89.07
70928;SHT31;58587;53.034;18.576;2023-08-30T13:51:29;18.57;88.35
70928;SHT31;58587;53.034;18.576;2023-08-30T13:53:55;18.56;89.10
70928;SHT31;58587;53.034;18.576;2023-08-30T13:56:23;18.53;88.64
70928;SHT31;58587;53.034;18.576;2023-08-30T13:58:48;18.53;88.68
70928;SHT31;58587;53.034;18.576;2023-08-30T14:01:14;18.56;89.33
70928;SHT31;58587;53.034;18.576;2023-08-30T14:03:40;18.53;89.14
70928;SHT31;58587;53.034;18.576;2023-08-30T14:06:05;18.54;89.25
70928;SHT31;58587;53.034;18.576;2023-08-30T14:08:31;18.53;89.11
70928;SHT31;58587;53.034;18.576;2023-08-30T14:10:57;18.44;87.37
70928;SHT31;58587;53.034;18.576;2023-08-30T14:13:23;18.43;88.57
70928;SHT31;58587;53.034;18.576;2023-08-30T14:15:53;18.44;88.85
70928;SHT31;58587;53.034;18.576;2023-08-30T14:18:18;18.46;88.94
70928;SHT31;58587;53.034;18.576;2023-08-30T14:20:44;18.44;89.14
70928;SHT31;58587;53.034;18.576;2023-08-30T14:23:09;18.47;89.19
70928;SHT31;58587;53.034;18.576;2023-08-30T14:25:35;18.50;89.32
70928;SHT31;58587;53.034;18.576;2023-08-30T14:28:01;18.48;89.40
70928;SHT31;58587;53.034;18.576;2023-08-30T14:30:27;18.51;89.49
70928;SHT31;58587;53.034;18.576;2023-08-30T14:32:52;18.56;89.73
70928;SHT31;58587;53.034;18.576;2023-08-30T14:35:18;18.60;89.64
70928;SHT31;58587;53.034;18.576;2023-08-30T14:37:49;18.64;89.55
70928;SHT31;58587;53.034;18.576;2023-08-30T14:40:14;18.65;89.64
70928;SHT31;58587;53.034;18.576;2023-08-30T14:42:39;18.70;89.55
70928;SHT31;58587;53.034;18.576;2023-08-30T14:45:06;18.71;89.22
70928;SHT31;58587;53.034;18.576;2023-08-30T14:47:34;18.70;89.27
70928;SHT31;58587;53.034;18.576;2023-08-30T14:50:00;18.58;88.35
70928;SHT31;58587;53.034;18.576;2023-08-30T14:52:28;18.54;88.53
70928;SHT31;58587;53.034;18.576;2023-08-30T14:54:53;18.50;88.80
70928;SHT31;58587;53.034;18.576;2023-08-30T14:57:19;18.46;89.09
70928;SHT31;58587;53.034;18.576;2023-08-30T14:59:44;18.47;89.38
70928;SHT31;58587;53.034;18.576;2023-08-30T15:02:09;18.40;89.88
70928;SHT31;58587;53.034;18.576;2023-08-30T15:04:34;18.34;90.13
70928;SHT31;58587;53.034;18.576;2023-08-30T15:07:00;18.32;90.51
70928;SHT31;58587;53.034;18.576;2023-08-30T15:09:25;18.29;90.83
70928;SHT31;58587;53.034;18.576;2023-08-30T15:11:50;18.19;90.64
70928;SHT31;58587;53.034;18.576;2023-08-30T15:14:16;18.22;91.33
70928;SHT31;58587;53.034;18.576;2023-08-30T15:16:41;18.23;91.65
70928;SHT31;58587;53.034;18.576;2023-08-30T15:19:06;18.22;91.58